createdAt,value
2023-02-19T00:00:18.084Z,47.10
2023-02-19T00:01:18.788Z,48.60
2023-02-19T00:02:19.507Z,49.20
2023-02-19T00:03:20.265Z,50.40
2023-02-19T00:04:20.942Z,51.00
2023-02-19T00:05:21.644Z,51.50
2023-02-19T00:06:22.350Z,52.20
2023-02-19T00:07:23.060Z,54.20
2023-02-19T00:08:23.766Z,55.20
2023-02-19T00:09:24.469Z,54.90
2023-02-19T00:10:25.193Z,54.50
2023-02-19T00:11:25.824Z,56.20
2023-02-19T00:12:26.941Z,55.30
2023-02-19T00:13:27.144Z,57.70
2023-02-19T00:14:27.865Z,57.80
2023-02-19T00:15:28.561Z,59.50
2023-02-19T00:16:29.254Z,60.90
2023-02-19T00:17:30.450Z,61.20
2023-02-19T00:18:30.648Z,62.60
2023-02-19T00:19:31.356Z,66.90
2023-02-19T00:20:32.058Z,62.70
2023-02-19T00:21:32.771Z,64.10
2023-02-19T00:22:33.942Z,64.20
2023-02-19T00:23:34.152Z,66.50
2023-02-19T00:24:34.848Z,68.10
2023-02-19T00:25:35.574Z,68.70
2023-02-19T00:26:36.228Z,67.40
2023-02-19T00:27:36.943Z,67.80
2023-02-19T00:28:37.648Z,67.20
2023-02-19T00:29:38.412Z,72.10
2023-02-19T00:30:39.081Z,71.10
2023-02-19T00:31:39.894Z,70.00
2023-02-19T00:32:40.955Z,72.10
2023-02-19T00:33:41.158Z,73.20
2023-02-19T00:34:41.866Z,75.60
2023-02-19T00:35:42.569Z,75.40
2023-02-19T00:36:43.284Z,75.90
2023-02-19T00:37:44.450Z,76.40
2023-02-19T00:38:44.654Z,76.60
2023-02-19T00:39:45.359Z,78.70
2023-02-19T00:40:46.102Z,79.30
2023-02-19T00:41:46.735Z,77.90
2023-02-19T00:42:47.453Z,79.50
2023-02-19T00:43:48.158Z,78.80
2023-02-19T00:44:48.890Z,79.90
2023-02-19T00:45:49.579Z,81.40
2023-02-19T00:46:50.290Z,79.30
2023-02-19T00:47:51.024Z,80.00
2023-02-19T00:48:51.702Z,80.70
2023-02-19T00:49:52.411Z,78.00
2023-02-19T00:50:53.111Z,79.70
2023-02-19T00:51:53.833Z,80.80
2023-02-19T00:52:54.949Z,79.90
2023-02-19T00:53:55.158Z,80.30
2023-02-19T00:54:55.862Z,79.20
2023-02-19T00:55:56.587Z,77.50
2023-02-19T00:56:57.212Z,80.70
2023-02-19T00:57:57.964Z,79.20
2023-02-19T00:58:58.701Z,79.60
2023-02-19T00:59:59.418Z,77.70
2023-02-19T01:01:00.116Z,78.20
2023-02-19T01:02:00.805Z,77.50
2023-02-19T01:03:01.954Z,75.10
2023-02-19T01:04:02.163Z,74.50
2023-02-19T01:05:02.897Z,73.90
2023-02-19T01:06:03.569Z,70.80
2023-02-19T01:07:04.278Z,72.60
2023-02-19T01:08:05.450Z,71.60
2023-02-19T01:09:05.660Z,64.30
2023-02-19T01:10:06.369Z,63.20
2023-02-19T01:11:07.118Z,59.70
2023-02-19T01:12:07.758Z,56.90
2023-02-19T01:13:08.467Z,58.60
2023-02-19T01:14:09.172Z,51.80
2023-02-19T01:15:09.896Z,50.20
2023-02-19T01:16:10.731Z,49.80
2023-02-19T01:17:11.394Z,50.30
2023-02-19T01:18:12.447Z,49.00
2023-02-19T01:19:12.658Z,48.10
2023-02-19T01:20:13.362Z,49.50
2023-02-19T01:21:14.066Z,50.50
2023-02-19T01:22:14.775Z,49.70
2023-02-19T01:23:15.956Z,48.50
2023-02-19T01:24:16.178Z,49.70
2023-02-19T01:25:16.881Z,49.20
2023-02-19T01:26:17.611Z,49.80
2023-02-19T01:27:18.304Z,50.90
2023-02-19T01:28:19.018Z,49.90
2023-02-19T01:29:19.757Z,50.90
2023-02-19T01:30:20.561Z,51.20
2023-02-19T01:31:21.379Z,52.50
2023-02-19T01:32:22.142Z,54.90
2023-02-19T01:33:22.953Z,53.90
2023-02-19T01:34:23.655Z,55.50
2023-02-19T01:35:24.357Z,58.00
2023-02-19T01:36:25.068Z,59.90
2023-02-19T01:37:25.765Z,61.00
2023-02-19T01:38:26.479Z,62.20
2023-02-19T01:39:27.189Z,62.20
2023-02-19T01:40:27.906Z,60.00
2023-02-19T01:41:28.629Z,61.80
2023-02-19T01:42:29.347Z,62.80
2023-02-19T01:43:30.464Z,63.60
2023-02-19T01:44:30.672Z,65.00
2023-02-19T01:45:31.402Z,67.40
2023-02-19T01:46:32.090Z,66.10
2023-02-19T01:47:32.772Z,67.20
2023-02-19T01:48:33.958Z,66.10
2023-02-19T01:49:34.162Z,70.10
2023-02-19T01:50:34.868Z,74.00
2023-02-19T01:51:35.589Z,73.70
2023-02-19T01:52:36.295Z,73.80
2023-02-19T01:53:37.454Z,77.00
2023-02-19T01:54:37.673Z,76.70
2023-02-19T01:55:38.369Z,79.50
2023-02-19T01:56:39.097Z,78.60
2023-02-19T01:57:39.726Z,79.90
2023-02-19T01:58:40.467Z,78.90
2023-02-19T01:59:41.174Z,78.50
2023-02-19T02:00:41.972Z,78.80
2023-02-19T02:01:42.656Z,80.90
2023-02-19T02:02:43.326Z,81.10
2023-02-19T02:03:44.465Z,79.10
2023-02-19T02:04:44.675Z,78.10
2023-02-19T02:05:45.378Z,80.30
2023-02-19T02:06:46.083Z,77.50
2023-02-19T02:07:46.795Z,77.60
2023-02-19T02:08:47.956Z,77.70
2023-02-19T02:09:48.160Z,78.30
2023-02-19T02:10:48.866Z,74.30
2023-02-19T02:11:49.605Z,74.40
2023-02-19T02:12:50.248Z,66.00
2023-02-19T02:13:51.464Z,65.70
2023-02-19T02:14:51.668Z,66.00
2023-02-19T02:15:52.422Z,62.60
2023-02-19T02:16:53.067Z,63.60
2023-02-19T02:17:53.776Z,59.80
2023-02-19T02:18:54.958Z,55.50
2023-02-19T02:19:55.175Z,52.10
2023-02-19T02:20:55.875Z,51.10
2023-02-19T02:21:56.571Z,51.60
2023-02-19T02:22:57.294Z,53.00
2023-02-19T02:23:58.464Z,52.00
2023-02-19T02:24:58.713Z,52.00
2023-02-19T02:25:59.419Z,51.70
2023-02-19T02:27:00.145Z,46.40
2023-02-19T02:28:00.794Z,45.90
2023-02-19T02:29:01.963Z,44.20
2023-02-19T02:30:02.219Z,44.90
2023-02-19T02:31:02.941Z,44.40
2023-02-19T02:32:03.671Z,43.60
2023-02-19T02:33:04.408Z,44.00
2023-02-19T02:34:05.464Z,43.20
2023-02-19T02:35:05.684Z,42.60
2023-02-19T02:36:06.391Z,41.90
2023-02-19T02:37:07.080Z,42.90
2023-02-19T02:38:07.787Z,45.20
2023-02-19T02:39:08.494Z,44.10
2023-02-19T02:40:09.199Z,45.50
2023-02-19T02:41:10.170Z,46.30
2023-02-19T02:42:10.537Z,48.50
2023-02-19T02:43:11.179Z,49.90
2023-02-19T02:44:11.887Z,49.80
2023-02-19T02:45:12.588Z,52.60
2023-02-19T02:46:13.296Z,56.70
2023-02-19T02:47:13.999Z,57.10
2023-02-19T02:48:14.700Z,60.00
2023-02-19T02:49:15.470Z,61.90
2023-02-19T02:50:16.175Z,66.30
2023-02-19T02:51:16.896Z,67.60
2023-02-19T02:52:17.599Z,71.70
2023-02-19T02:53:18.305Z,70.20
2023-02-19T02:54:19.466Z,75.30
2023-02-19T02:55:19.668Z,80.00
2023-02-19T02:56:20.378Z,74.70
2023-02-19T02:57:21.101Z,73.20
2023-02-19T02:58:21.760Z,68.20
2023-02-19T02:59:22.982Z,74.90
2023-02-19T03:00:23.189Z,77.50
2023-02-19T03:01:23.969Z,76.40
2023-02-19T03:02:24.689Z,77.60
2023-02-19T03:03:25.350Z,78.50
2023-02-19T03:04:26.077Z,81.90
2023-02-19T03:05:26.783Z,85.10
2023-02-19T03:06:27.483Z,82.90
2023-02-19T03:07:28.185Z,89.00
2023-02-19T03:08:28.889Z,90.60
2023-02-19T03:09:29.975Z,98.00
2023-02-19T03:10:30.181Z,103.70
2023-02-19T03:11:30.898Z,109.20
2023-02-19T03:12:31.614Z,110.50
2023-02-19T03:13:32.263Z,112.10
2023-02-19T03:14:33.472Z,112.10
2023-02-19T03:15:33.674Z,112.20
2023-02-19T03:16:34.434Z,114.60
2023-02-19T03:17:35.098Z,114.20
2023-02-19T03:18:35.819Z,115.50
2023-02-19T03:19:36.966Z,115.50
2023-02-19T03:20:37.176Z,115.80
2023-02-19T03:21:37.883Z,114.90
2023-02-19T03:22:38.601Z,115.20
2023-02-19T03:23:39.296Z,113.90
2023-02-19T03:24:40.466Z,116.60
2023-02-19T03:25:40.682Z,114.20
2023-02-19T03:26:41.380Z,112.90
2023-02-19T03:27:42.107Z,112.50
2023-02-19T03:28:42.748Z,111.60
2023-02-19T03:29:43.969Z,111.10
2023-02-19T03:30:44.172Z,110.40
2023-02-19T03:31:45.211Z,109.20
2023-02-19T03:32:45.866Z,108.80
2023-02-19T03:33:46.575Z,106.80
2023-02-19T03:34:47.475Z,105.30
2023-02-19T03:35:48.179Z,105.90
2023-02-19T03:36:48.887Z,103.60
2023-02-19T03:37:49.593Z,100.60
2023-02-19T03:38:50.295Z,101.40
2023-02-19T03:39:51.013Z,99.50
2023-02-19T03:40:51.716Z,100.90
2023-02-19T03:41:52.424Z,98.80
2023-02-19T03:42:55.784Z,97.80
2023-02-19T03:43:53.791Z,95.80
2023-02-19T03:44:54.970Z,97.40
2023-02-19T03:45:55.270Z,97.70
2023-02-19T03:46:55.939Z,94.20
2023-02-19T03:47:56.649Z,97.70
2023-02-19T03:48:57.381Z,93.80
2023-02-19T03:49:58.493Z,92.20
2023-02-19T03:50:58.680Z,92.20
2023-02-19T03:51:59.383Z,89.20
2023-02-19T03:53:00.102Z,89.70
2023-02-19T03:54:00.802Z,88.00
2023-02-19T03:55:01.966Z,87.30
2023-02-19T03:56:02.182Z,83.10
2023-02-19T03:57:02.891Z,85.20
2023-02-19T03:58:03.615Z,82.80
2023-02-19T03:59:04.271Z,82.00
2023-02-19T04:00:05.006Z,79.40
2023-02-19T04:01:05.706Z,79.30
2023-02-19T04:02:06.457Z,75.10
2023-02-19T04:03:07.130Z,70.10
2023-02-19T04:04:07.841Z,71.70
2023-02-19T04:05:08.558Z,72.10
2023-02-19T04:06:09.265Z,69.10
2023-02-19T04:07:09.971Z,70.40
2023-02-19T04:08:10.680Z,67.80
2023-02-19T04:09:11.386Z,65.30
2023-02-19T04:10:12.097Z,66.60
2023-02-19T04:11:12.886Z,65.00
2023-02-19T04:12:13.567Z,65.40
2023-02-19T04:13:14.287Z,66.60
2023-02-19T04:14:14.926Z,68.30
2023-02-19T04:15:15.980Z,66.50
2023-02-19T04:16:16.225Z,69.10
2023-02-19T04:17:16.930Z,67.50
2023-02-19T04:18:17.636Z,68.10
2023-02-19T04:19:18.339Z,66.30
2023-02-19T04:20:19.484Z,67.70
2023-02-19T04:21:19.702Z,68.50
2023-02-19T04:22:20.406Z,66.30
2023-02-19T04:23:21.112Z,66.10
2023-02-19T04:24:21.838Z,65.40
2023-02-19T04:25:22.980Z,66.70
2023-02-19T04:26:23.186Z,65.10
2023-02-19T04:27:23.896Z,68.20
2023-02-19T04:28:24.614Z,69.50
2023-02-19T04:29:25.244Z,69.40
2023-02-19T04:30:26.017Z,67.30
2023-02-19T04:31:26.858Z,64.30
2023-02-19T04:32:27.553Z,65.90
2023-02-19T04:33:28.258Z,67.20
2023-02-19T04:34:28.961Z,67.20
2023-02-19T04:35:29.683Z,65.60
2023-02-19T04:36:30.392Z,65.70
2023-02-19T04:37:31.096Z,67.50
2023-02-19T04:38:32.053Z,68.70
2023-02-19T04:39:32.758Z,68.10
2023-02-19T04:40:33.479Z,67.70
2023-02-19T04:41:34.187Z,68.80
2023-02-19T04:42:34.892Z,68.00
2023-02-19T04:43:35.609Z,69.80
2023-02-19T04:44:36.237Z,67.50
2023-02-19T04:45:36.948Z,69.70
2023-02-19T04:46:37.652Z,68.10
2023-02-19T04:47:38.368Z,66.50
2023-02-19T04:48:39.062Z,68.80
2023-02-19T04:49:39.799Z,68.90
2023-02-19T04:50:40.976Z,67.50
2023-02-19T04:51:41.181Z,69.70
2023-02-19T04:52:41.882Z,68.30
2023-02-19T04:53:42.590Z,69.50
2023-02-19T04:54:43.301Z,66.50
2023-02-19T04:55:44.013Z,68.10
2023-02-19T04:56:44.729Z,67.30
2023-02-19T04:57:45.432Z,67.60
2023-02-19T04:58:46.156Z,64.90
2023-02-19T04:59:46.857Z,65.00
2023-02-19T05:00:48.000Z,66.10
2023-02-19T05:01:48.231Z,65.90
2023-02-19T05:02:48.919Z,67.70
2023-02-19T05:03:49.631Z,66.60
2023-02-19T05:04:50.334Z,67.30
2023-02-19T05:05:51.481Z,69.50
2023-02-19T05:06:51.687Z,69.50
2023-02-19T05:07:52.405Z,67.10
2023-02-19T05:08:53.117Z,68.70
2023-02-19T05:09:53.824Z,68.30
2023-02-19T05:10:54.975Z,67.50
2023-02-19T05:11:55.218Z,69.70
2023-02-19T05:12:57.959Z,72.20
2023-02-19T05:13:56.764Z,72.60
2023-02-19T05:14:57.416Z,74.10
2023-02-19T05:15:58.508Z,75.50
2023-02-19T05:16:58.681Z,75.30
2023-02-19T05:17:59.386Z,75.20
2023-02-19T05:19:00.094Z,73.60
2023-02-19T05:20:00.812Z,75.90
2023-02-19T05:21:01.976Z,76.30
2023-02-19T05:22:02.188Z,76.60
2023-02-19T05:23:02.895Z,78.40
2023-02-19T05:24:03.610Z,77.30
2023-02-19T05:25:04.310Z,76.40
2023-02-19T05:26:05.492Z,76.50
2023-02-19T05:27:05.684Z,76.10
2023-02-19T05:28:06.386Z,76.00
2023-02-19T05:29:07.115Z,76.40
2023-02-19T05:30:07.826Z,75.80
2023-02-19T05:31:09.385Z,73.30
2023-02-19T05:32:09.384Z,72.50
2023-02-19T05:33:10.032Z,71.60
2023-02-19T05:34:10.743Z,72.30
2023-02-19T05:35:11.441Z,73.10
2023-02-19T05:36:12.492Z,71.00
2023-02-19T05:37:12.708Z,70.30
2023-02-19T05:38:13.417Z,73.00
2023-02-19T05:39:14.126Z,72.80
2023-02-19T05:40:14.829Z,71.70
2023-02-19T05:41:16.000Z,74.00
2023-02-19T05:42:16.189Z,72.10
2023-02-19T05:43:16.889Z,73.70
2023-02-19T05:44:17.617Z,75.00
2023-02-19T05:45:18.262Z,74.70
2023-02-19T05:46:18.986Z,78.30
2023-02-19T05:47:19.700Z,73.60
2023-02-19T05:48:20.389Z,75.60
2023-02-19T05:49:21.106Z,75.70
2023-02-19T05:50:21.835Z,74.00
2023-02-19T05:51:22.999Z,74.50
2023-02-19T05:52:23.210Z,72.30
2023-02-19T05:53:23.926Z,71.40
2023-02-19T05:54:24.630Z,75.10
2023-02-19T05:55:25.339Z,71.40
2023-02-19T05:56:26.096Z,75.20
2023-02-19T05:57:26.760Z,74.00
2023-02-19T05:58:27.468Z,74.40
2023-02-19T05:59:28.203Z,74.60
2023-02-19T06:00:28.831Z,75.20
2023-02-19T06:01:29.999Z,77.90
2023-02-19T06:02:30.266Z,76.70
2023-02-19T06:03:30.936Z,75.60
2023-02-19T06:04:31.622Z,76.00
2023-02-19T06:05:32.326Z,72.10
2023-02-19T06:06:33.483Z,73.20
2023-02-19T06:07:33.713Z,73.70
2023-02-19T06:08:34.428Z,74.00
2023-02-19T06:09:35.117Z,73.70
2023-02-19T06:10:35.825Z,75.20
2023-02-19T06:11:36.544Z,71.80
2023-02-19T06:12:37.258Z,74.20
2023-02-19T06:13:37.958Z,73.50
2023-02-19T06:14:38.682Z,72.30
2023-02-19T06:15:39.318Z,73.90
2023-02-19T06:16:40.483Z,72.70
2023-02-19T06:17:40.686Z,73.20
2023-02-19T06:18:41.404Z,74.20
2023-02-19T06:19:42.098Z,75.20
2023-02-19T06:20:42.801Z,75.20
2023-02-19T06:21:43.511Z,77.10
2023-02-19T06:22:44.223Z,74.50
2023-02-19T06:23:44.925Z,74.60
2023-02-19T06:24:45.633Z,74.90
2023-02-19T06:25:46.352Z,75.00
2023-02-19T06:26:47.055Z,75.60
2023-02-19T06:27:47.759Z,77.10
2023-02-19T06:28:48.477Z,76.10
2023-02-19T06:29:49.197Z,77.20
2023-02-19T06:30:51.512Z,73.60
2023-02-19T06:31:50.891Z,73.30
2023-02-19T06:32:51.560Z,74.40
2023-02-19T06:33:52.270Z,76.00
2023-02-19T06:34:52.976Z,75.50
2023-02-19T06:35:53.679Z,77.60
2023-02-19T06:36:54.493Z,79.00
2023-02-19T06:37:55.215Z,78.40
2023-02-19T06:38:55.915Z,80.10
2023-02-19T06:39:56.621Z,79.00
2023-02-19T06:40:57.334Z,80.20
2023-02-19T06:41:58.497Z,79.60
2023-02-19T06:42:58.711Z,78.90
2023-02-19T06:43:59.412Z,83.40
2023-02-19T06:45:00.146Z,83.40
2023-02-19T06:46:00.798Z,81.80
2023-02-19T06:47:02.008Z,80.40
2023-02-19T06:48:02.207Z,84.90
2023-02-19T06:49:02.906Z,81.70
2023-02-19T06:50:03.620Z,80.30
2023-02-19T06:51:04.324Z,81.70
2023-02-19T06:52:05.510Z,80.90
2023-02-19T06:53:05.714Z,80.70
2023-02-19T06:54:06.421Z,83.80
2023-02-19T06:55:07.126Z,84.10
2023-02-19T06:56:07.826Z,82.50
2023-02-19T06:57:09.014Z,80.30
2023-02-19T06:58:09.209Z,78.50
2023-02-19T06:59:09.909Z,81.20
2023-02-19T07:00:10.636Z,80.80
2023-02-19T07:01:11.591Z,78.80
2023-02-19T07:02:12.005Z,77.20
2023-02-19T07:03:12.739Z,77.60
2023-02-19T07:04:13.503Z,80.50
2023-02-19T07:05:14.157Z,77.80
2023-02-19T07:06:14.865Z,77.60
2023-02-19T07:07:15.994Z,77.70
2023-02-19T07:08:16.202Z,79.60
2023-02-19T07:09:16.914Z,77.20
2023-02-19T07:10:17.623Z,78.00
2023-02-19T07:11:18.333Z,76.00
2023-02-19T07:12:19.495Z,76.90
2023-02-19T07:13:19.700Z,76.20
2023-02-19T07:14:20.404Z,77.90
2023-02-19T07:15:21.130Z,76.10
2023-02-19T07:16:21.807Z,77.50
2023-02-19T07:17:22.492Z,77.10
2023-02-19T07:18:23.194Z,75.50
2023-02-19T07:19:23.901Z,74.30
2023-02-19T07:20:24.609Z,73.90
2023-02-19T07:21:25.319Z,72.90
2023-02-19T07:22:26.492Z,74.20
2023-02-19T07:23:26.700Z,75.90
2023-02-19T07:24:27.415Z,76.70
2023-02-19T07:25:28.110Z,75.30
2023-02-19T07:26:28.820Z,75.20
2023-02-19T07:27:29.534Z,72.20
2023-02-19T07:28:30.246Z,74.60
2023-02-19T07:29:30.942Z,74.70
2023-02-19T07:30:31.720Z,74.90
2023-02-19T07:31:32.524Z,69.60
2023-02-19T07:32:33.493Z,71.50
2023-02-19T07:33:33.698Z,70.50
2023-02-19T07:34:34.409Z,70.80
2023-02-19T07:35:35.116Z,70.50
2023-02-19T07:36:35.819Z,70.70
2023-02-19T07:37:37.001Z,70.20
2023-02-19T07:38:37.210Z,70.20
2023-02-19T07:39:37.931Z,71.80
2023-02-19T07:40:38.625Z,68.80
2023-02-19T07:41:39.328Z,70.20
2023-02-19T07:42:40.499Z,69.60
2023-02-19T07:43:40.714Z,70.30
2023-02-19T07:44:41.414Z,69.50
2023-02-19T07:45:42.171Z,70.90
2023-02-19T07:46:42.826Z,70.10
2023-02-19T07:47:43.575Z,71.80
2023-02-19T07:48:44.250Z,71.10
2023-02-19T07:49:44.951Z,70.40
2023-02-19T07:50:45.656Z,72.10
2023-02-19T07:51:46.373Z,71.50
2023-02-19T07:52:47.507Z,71.30
2023-02-19T07:53:47.769Z,69.70
2023-02-19T07:54:48.460Z,70.60
2023-02-19T07:55:49.165Z,70.70
2023-02-19T07:56:49.869Z,71.70
2023-02-19T07:57:50.580Z,71.60
2023-02-19T07:58:51.296Z,74.00
2023-02-19T07:59:51.994Z,72.30
2023-02-19T08:00:52.751Z,71.30
2023-02-19T08:01:53.397Z,73.20
2023-02-19T08:02:54.123Z,70.90
2023-02-19T08:03:54.828Z,72.00
2023-02-19T08:04:55.535Z,71.60
2023-02-19T08:05:56.245Z,69.50
2023-02-19T08:06:56.963Z,71.20
2023-02-19T08:07:58.004Z,69.80
2023-02-19T08:08:58.207Z,69.90
2023-02-19T08:09:58.914Z,70.70
2023-02-19T08:10:59.679Z,70.00
2023-02-19T08:12:00.439Z,71.20
2023-02-19T08:13:01.141Z,71.30
2023-02-19T08:14:01.903Z,70.50
2023-02-19T08:15:02.714Z,72.90
2023-02-19T08:16:18.289Z,72.70
2023-02-19T08:17:05.204Z,73.70
2023-02-19T08:18:05.017Z,73.40
2023-02-19T08:19:05.718Z,70.60
2023-02-19T08:20:06.419Z,71.50
2023-02-19T08:21:07.125Z,72.30
2023-02-19T08:22:07.853Z,72.60
2023-02-19T08:23:08.567Z,71.90
2023-02-19T08:24:09.279Z,69.50
2023-02-19T08:25:09.978Z,68.70
2023-02-19T08:26:10.682Z,69.80
2023-02-19T08:27:11.420Z,66.40
2023-02-19T08:28:12.504Z,67.60
2023-02-19T08:29:12.708Z,69.40
2023-02-19T08:30:13.494Z,68.30
2023-02-19T08:31:14.733Z,68.10
2023-02-19T08:32:15.144Z,69.20
2023-02-19T08:33:15.824Z,66.50
2023-02-19T08:34:16.537Z,66.50
2023-02-19T08:35:17.257Z,65.60
2023-02-19T08:36:18.054Z,65.60
2023-02-19T08:37:18.705Z,65.50
2023-02-19T08:38:19.505Z,64.40
2023-02-19T08:39:21.107Z,64.20
2023-02-19T08:40:20.958Z,65.60
2023-02-19T08:41:21.667Z,66.00
2023-02-19T08:42:22.372Z,64.30
2023-02-19T08:43:23.503Z,61.70
2023-02-19T08:44:23.733Z,61.50
2023-02-19T08:45:24.466Z,60.20
2023-02-19T08:46:25.282Z,59.20
2023-02-19T08:47:25.955Z,57.30
2023-02-19T08:48:26.672Z,56.30
2023-02-19T08:49:27.412Z,54.00
2023-02-19T08:50:28.096Z,55.60
2023-02-19T08:51:28.806Z,55.10
2023-02-19T08:52:29.508Z,56.30
2023-02-19T08:53:30.226Z,54.40
2023-02-19T08:54:30.930Z,52.90
2023-02-19T08:55:31.641Z,51.70
2023-02-19T08:56:32.506Z,52.20
2023-02-19T08:57:33.217Z,50.20
2023-02-19T08:58:33.987Z,48.80
2023-02-19T08:59:34.690Z,49.50
2023-02-19T09:00:35.401Z,47.30
2023-02-19T09:01:36.148Z,46.90
2023-02-19T09:02:36.793Z,47.80
2023-02-19T09:03:38.024Z,48.60
2023-02-19T09:04:38.227Z,50.00
2023-02-19T09:05:38.933Z,51.60
2023-02-19T09:06:40.145Z,54.10
2023-02-19T09:07:40.314Z,53.30
2023-02-19T09:08:41.518Z,51.00
2023-02-19T09:09:41.712Z,51.50
2023-02-19T09:10:42.423Z,52.50
2023-02-19T09:11:43.133Z,50.60
2023-02-19T09:12:43.830Z,52.10
2023-02-19T09:13:44.554Z,50.50
2023-02-19T09:14:45.262Z,52.10
2023-02-19T09:15:46.031Z,51.40
2023-02-19T09:16:46.699Z,50.10
2023-02-19T09:17:47.341Z,48.60
2023-02-19T09:18:48.512Z,48.30
2023-02-19T09:19:50.819Z,50.10
2023-02-19T09:20:49.553Z,50.50
2023-02-19T09:21:50.273Z,53.90
2023-02-19T09:22:50.978Z,51.30
2023-02-19T09:23:52.014Z,51.50
2023-02-19T09:24:52.224Z,54.60
2023-02-19T09:25:52.947Z,53.50
2023-02-19T09:26:53.659Z,53.00
2023-02-19T09:27:54.367Z,55.20
2023-02-19T09:28:55.512Z,53.90
2023-02-19T09:29:55.731Z,54.30
2023-02-19T09:30:56.479Z,55.60
2023-02-19T09:31:57.197Z,54.40
2023-02-19T09:32:57.885Z,52.60
2023-02-19T09:33:58.592Z,51.70
2023-02-19T09:34:59.393Z,51.40
2023-02-19T09:36:00.126Z,49.00
2023-02-19T09:37:00.799Z,51.50
2023-02-19T09:38:01.512Z,52.10
2023-02-19T09:39:02.229Z,53.80
2023-02-19T09:40:02.931Z,54.60
2023-02-19T09:41:03.631Z,53.40
2023-02-19T09:42:04.339Z,53.50
2023-02-19T09:43:05.040Z,50.60
2023-02-19T09:44:06.011Z,53.30
2023-02-19T09:45:06.716Z,53.30
2023-02-19T09:46:07.451Z,52.60
2023-02-19T09:47:08.144Z,50.70
2023-02-19T09:48:08.799Z,52.00
2023-02-19T09:49:10.012Z,50.00
2023-02-19T09:50:10.220Z,50.60
2023-02-19T09:51:11.257Z,48.80
2023-02-19T09:52:11.497Z,49.50
2023-02-19T09:53:12.204Z,49.50
2023-02-19T09:54:13.024Z,49.40
2023-02-19T09:55:13.724Z,49.60
2023-02-19T09:56:14.442Z,46.40
2023-02-19T09:57:15.140Z,46.20
2023-02-19T09:58:16.008Z,44.60
2023-02-19T09:59:16.720Z,42.20
2023-02-19T10:00:17.429Z,43.50
2023-02-19T10:01:18.153Z,45.10
2023-02-19T10:02:18.865Z,45.10
2023-02-19T10:03:19.511Z,43.80
2023-02-19T10:04:20.228Z,44.50
2023-02-19T10:05:20.981Z,43.80
2023-02-19T10:06:21.647Z,43.30
2023-02-19T10:07:22.352Z,42.30
2023-02-19T10:08:23.096Z,42.20
2023-02-19T10:09:23.795Z,41.00
2023-02-19T10:10:24.509Z,41.60
2023-02-19T10:11:25.216Z,40.90
2023-02-19T10:12:25.926Z,40.70
2023-02-19T10:13:26.627Z,37.30
2023-02-19T10:14:27.355Z,39.20
2023-02-19T10:15:28.052Z,40.30
2023-02-19T10:16:28.754Z,39.50
2023-02-19T10:17:29.474Z,36.60
2023-02-19T10:18:30.116Z,36.10
2023-02-19T10:19:31.013Z,37.00
2023-02-19T10:20:31.715Z,37.70
2023-02-19T10:21:32.598Z,37.00
2023-02-19T10:22:33.305Z,35.70
2023-02-19T10:23:34.014Z,35.60
2023-02-19T10:24:37.484Z,36.80
2023-02-19T10:25:35.504Z,38.60
2023-02-19T10:26:36.206Z,38.30
2023-02-19T10:27:36.913Z,39.90
2023-02-19T10:28:37.626Z,39.30
2023-02-19T10:29:38.512Z,38.90
2023-02-19T10:30:39.224Z,38.00
2023-02-19T10:31:40.000Z,38.60
2023-02-19T10:32:40.689Z,40.40
2023-02-19T10:33:41.325Z,41.70
2023-02-19T10:34:42.516Z,43.70
2023-02-19T10:35:42.719Z,44.10
2023-02-19T10:36:43.427Z,45.00
2023-02-19T10:37:44.132Z,45.40
2023-02-19T10:38:44.841Z,46.00
2023-02-19T10:39:46.018Z,48.30
2023-02-19T10:40:46.230Z,50.50
2023-02-19T10:41:46.926Z,48.40
2023-02-19T10:42:47.632Z,47.10
2023-02-19T10:43:48.337Z,46.80
2023-02-19T10:44:49.519Z,43.30
2023-02-19T10:45:49.726Z,44.00
2023-02-19T10:46:50.429Z,44.30
2023-02-19T10:47:51.151Z,42.10
2023-02-19T10:48:51.783Z,43.20
2023-02-19T10:49:52.528Z,42.90
2023-02-19T10:50:53.224Z,40.50
2023-02-19T10:51:53.938Z,37.60
2023-02-19T10:52:54.649Z,35.70
2023-02-19T10:53:55.342Z,35.90
2023-02-19T10:54:56.539Z,36.20
2023-02-19T10:55:56.729Z,37.30
2023-02-19T10:56:57.436Z,36.00
2023-02-19T10:57:58.139Z,35.20
2023-02-19T10:58:58.846Z,39.10
2023-02-19T11:00:00.021Z,36.80
2023-02-19T11:01:00.223Z,36.70
2023-02-19T11:02:00.986Z,38.20
2023-02-19T11:03:01.653Z,37.90
2023-02-19T11:04:02.356Z,37.20
2023-02-19T11:05:03.528Z,37.90
2023-02-19T11:06:03.740Z,37.60
2023-02-19T11:07:04.481Z,38.50
2023-02-19T11:08:05.177Z,37.10
2023-02-19T11:09:05.927Z,37.50
2023-02-19T11:10:07.017Z,37.40
2023-02-19T11:11:07.222Z,33.80
2023-02-19T11:12:09.527Z,33.20
2023-02-19T11:13:08.854Z,33.90
2023-02-19T11:14:09.562Z,32.70
2023-02-19T11:15:10.519Z,33.70
2023-02-19T11:16:11.259Z,34.20
2023-02-19T11:17:12.005Z,34.20
2023-02-19T11:18:12.740Z,31.60
2023-02-19T11:19:13.388Z,28.70
2023-02-19T11:20:14.520Z,30.40
2023-02-19T11:21:14.727Z,29.60
2023-02-19T11:22:15.431Z,31.90
2023-02-19T11:23:16.147Z,32.10
2023-02-19T11:24:16.839Z,27.30
2023-02-19T11:25:18.038Z,29.30
2023-02-19T11:26:18.234Z,27.00
2023-02-19T11:27:18.951Z,28.10
2023-02-19T11:28:19.656Z,27.10
2023-02-19T11:29:20.364Z,26.70
2023-02-19T11:30:21.578Z,26.90
2023-02-19T11:31:21.839Z,26.50
2023-02-19T11:32:22.562Z,25.90
2023-02-19T11:33:23.260Z,24.30
2023-02-19T11:34:23.878Z,22.70
2023-02-19T11:35:24.602Z,23.30
2023-02-19T11:36:26.534Z,23.70
2023-02-19T11:37:25.856Z,24.60
2023-02-19T11:38:26.568Z,23.40
2023-02-19T11:39:27.273Z,21.40
2023-02-19T11:40:27.984Z,20.50
2023-02-19T11:41:28.698Z,22.30
2023-02-19T11:42:29.750Z,20.30
2023-02-19T11:43:29.906Z,19.00
2023-02-19T11:44:30.618Z,17.50
2023-02-19T11:45:31.325Z,18.00
2023-02-19T11:46:32.077Z,16.80
2023-02-19T11:47:32.739Z,17.70
2023-02-19T11:48:33.469Z,16.70
2023-02-19T11:49:34.102Z,15.30
2023-02-19T11:50:35.024Z,13.90
2023-02-19T11:51:35.733Z,14.00
2023-02-19T11:52:36.441Z,13.80
2023-02-19T11:53:37.169Z,11.60
2023-02-19T11:54:37.852Z,12.50
2023-02-19T11:55:39.029Z,13.00
2023-02-19T11:56:39.232Z,14.90
2023-02-19T11:57:39.935Z,12.90
2023-02-19T11:58:40.645Z,14.80
2023-02-19T11:59:41.350Z,16.70
2023-02-19T12:00:42.064Z,15.10
2023-02-19T12:01:42.793Z,16.80
2023-02-19T12:02:43.469Z,19.20
2023-02-19T12:03:44.196Z,20.00
2023-02-19T12:04:44.846Z,19.70
2023-02-19T12:05:46.041Z,17.80
2023-02-19T12:06:46.247Z,17.70
2023-02-19T12:07:46.952Z,16.50
2023-02-19T12:08:47.655Z,14.40
2023-02-19T12:09:48.363Z,15.50
2023-02-19T12:10:49.524Z,15.30
2023-02-19T12:11:49.735Z,16.00
2023-02-19T12:12:50.455Z,15.40
2023-02-19T12:13:51.164Z,16.50
2023-02-19T12:14:51.873Z,17.60
2023-02-19T12:15:53.024Z,17.50
2023-02-19T12:16:53.241Z,17.40
2023-02-19T12:17:53.938Z,15.90
2023-02-19T12:18:54.705Z,14.80
2023-02-19T12:19:55.372Z,19.10
2023-02-19T12:20:56.527Z,17.70
2023-02-19T12:21:56.742Z,16.90
2023-02-19T12:22:57.445Z,16.70
2023-02-19T12:23:58.163Z,16.30
2023-02-19T12:24:58.867Z,15.40
2023-02-19T12:26:00.031Z,16.70
2023-02-19T12:27:00.239Z,15.80
2023-02-19T12:28:00.947Z,16.10
2023-02-19T12:29:01.665Z,15.60
2023-02-19T12:30:02.427Z,13.70
2023-02-19T12:31:03.552Z,14.00
2023-02-19T12:32:03.827Z,12.50
2023-02-19T12:33:04.512Z,12.50
2023-02-19T12:34:05.224Z,13.40
2023-02-19T12:35:05.856Z,16.80
2023-02-19T12:36:07.027Z,17.70
2023-02-19T12:37:07.235Z,18.10
2023-02-19T12:38:07.940Z,17.50
2023-02-19T12:39:08.646Z,17.30
2023-02-19T12:40:09.356Z,19.10
2023-02-19T12:41:10.548Z,17.80
2023-02-19T12:42:10.747Z,18.00
2023-02-19T12:43:11.454Z,16.40
2023-02-19T12:44:12.183Z,15.60
2023-02-19T12:45:12.890Z,15.90
2023-02-19T12:46:14.548Z,16.00
2023-02-19T12:47:14.382Z,17.00
2023-02-19T12:48:15.091Z,15.50
2023-02-19T12:49:15.812Z,16.50
2023-02-19T12:50:16.446Z,16.40
2023-02-19T12:51:17.531Z,18.20
2023-02-19T12:52:17.738Z,18.60
2023-02-19T12:53:18.449Z,18.30
2023-02-19T12:54:19.166Z,17.60
2023-02-19T12:55:19.864Z,17.70
2023-02-19T12:56:20.577Z,18.10
2023-02-19T12:57:21.282Z,19.40
2023-02-19T12:58:21.996Z,18.20
2023-02-19T12:59:22.734Z,17.90
2023-02-19T13:00:23.447Z,18.60